sensor_id;sensor_type;location;lat;lon;timestamp;temperature;humidity
36752;DHT22;22718;49.494;7.036;2024-03-02T00:23:44;6.20;99.90
36752;DHT22;22718;49.494;7.036;2024-03-02T00:26:17;6.20;99.90
36752;DHT22;22718;49.494;7.036;2024-03-02T00:28:55;6.20;99.90
36752;DHT22;22718;49.494;7.036;2024-03-02T00:31:55;6.10;99.90
36752;DHT22;22718;49.494;7.036;2024-03-02T00:34:40;6.10;99.90
36752;DHT22;22718;49.494;7.036;2024-03-02T00:37:27;6.10;99.90
36752;DHT22;22718;49.494;7.036;2024-03-02T00:40:19;6.10;99.90
36752;DHT22;22718;49.494;7.036;2024-03-02T00:43:36;6.20;99.90
36752;DHT22;22718;49.494;7.036;2024-03-02T00:45:58;6.10;99.90
36752;DHT22;22718;49.494;7.036;2024-03-02T00:56:24;6.10;99.90
36752;DHT22;22718;49.494;7.036;2024-03-02T01:02:38;6.10;99.90
36752;DHT22;22718;49.494;7.036;2024-03-02T01:05:11;6.10;99.90
36752;DHT22;22718;49.494;7.036;2024-03-02T01:07:54;6.10;99.90
36752;DHT22;22718;49.494;7.036;2024-03-02T01:10:29;6.10;99.90
36752;DHT22;22718;49.494;7.036;2024-03-02T01:13:29;6.10;99.90
36752;DHT22;22718;49.494;7.036;2024-03-02T01:16:02;6.10;99.90
36752;DHT22;22718;49.494;7.036;2024-03-02T01:18:37;6.10;99.90
36752;DHT22;22718;49.494;7.036;2024-03-02T01:21:03;6.10;99.90
36752;DHT22;22718;49.494;7.036;2024-03-02T01:23:28;6.10;99.90
36752;DHT22;22718;49.494;7.036;2024-03-02T01:25:54;6.10;99.90
36752;DHT22;22718;49.494;7.036;2024-03-02T01:31:12;6.10;99.90
36752;DHT22;22718;49.494;7.036;2024-03-02T01:33:38;6.20;99.90
36752;DHT22;22718;49.494;7.036;2024-03-02T01:36:04;6.20;99.90
36752;DHT22;22718;49.494;7.036;2024-03-02T01:38:37;6.20;99.90
36752;DHT22;22718;49.494;7.036;2024-03-02T01:41:42;6.10;99.90
36752;DHT22;22718;49.494;7.036;2024-03-02T01:44:07;6.10;99.90
36752;DHT22;22718;49.494;7.036;2024-03-02T01:46:42;6.00;99.90
36752;DHT22;22718;49.494;7.036;2024-03-02T01:49:08;6.00;99.90
36752;DHT22;22718;49.494;7.036;2024-03-02T01:51:40;5.90;99.90
36752;DHT22;22718;49.494;7.036;2024-03-02T01:54:10;5.90;99.90
36752;DHT22;22718;49.494;7.036;2024-03-02T01:57:00;5.80;99.90
36752;DHT22;22718;49.494;7.036;2024-03-02T01:59:34;5.90;99.90
36752;DHT22;22718;49.494;7.036;2024-03-02T02:02:00;5.90;99.90
36752;DHT22;22718;49.494;7.036;2024-03-02T02:04:58;5.90;99.90
36752;DHT22;22718;49.494;7.036;2024-03-02T02:07:26;6.00;99.90
36752;DHT22;22718;49.494;7.036;2024-03-02T02:10:18;6.00;99.90
36752;DHT22;22718;49.494;7.036;2024-03-02T02:12:47;6.00;99.90
36752;DHT22;22718;49.494;7.036;2024-03-02T02:15:28;6.00;99.90
36752;DHT22;22718;49.494;7.036;2024-03-02T02:18:14;6.00;99.90
36752;DHT22;22718;49.494;7.036;2024-03-02T02:20:43;6.10;99.90
36752;DHT22;22718;49.494;7.036;2024-03-02T02:23:11;6.10;99.90
36752;DHT22;22718;49.494;7.036;2024-03-02T02:25:43;6.10;99.90
36752;DHT22;22718;49.494;7.036;2024-03-02T02:31:00;6.10;99.90
36752;DHT22;22718;49.494;7.036;2024-03-02T02:33:26;6.20;99.90
36752;DHT22;22718;49.494;7.036;2024-03-02T02:36:15;6.20;99.90
36752;DHT22;22718;49.494;7.036;2024-03-02T02:38:51;6.20;99.90
36752;DHT22;22718;49.494;7.036;2024-03-02T02:41:25;6.20;99.90
36752;DHT22;22718;49.494;7.036;2024-03-02T02:43:58;6.30;99.90
36752;DHT22;22718;49.494;7.036;2024-03-02T02:46:26;6.40;99.90
36752;DHT22;22718;49.494;7.036;2024-03-02T02:48:51;6.40;99.90
36752;DHT22;22718;49.494;7.036;2024-03-02T02:51:40;6.50;99.90
36752;DHT22;22718;49.494;7.036;2024-03-02T02:54:06;6.50;99.90
36752;DHT22;22718;49.494;7.036;2024-03-02T02:56:47;6.60;99.90
36752;DHT22;22718;49.494;7.036;2024-03-02T02:59:14;6.70;99.90
36752;DHT22;22718;49.494;7.036;2024-03-02T03:01:39;6.70;99.90
36752;DHT22;22718;49.494;7.036;2024-03-02T03:04:05;6.70;99.90
36752;DHT22;22718;49.494;7.036;2024-03-02T03:06:30;6.80;99.90
36752;DHT22;22718;49.494;7.036;2024-03-02T03:08:56;6.80;99.90
36752;DHT22;22718;49.494;7.036;2024-03-02T03:11:23;6.80;99.90
36752;DHT22;22718;49.494;7.036;2024-03-02T03:13:50;6.80;99.90
36752;DHT22;22718;49.494;7.036;2024-03-02T03:16:15;6.70;99.90
36752;DHT22;22718;49.494;7.036;2024-03-02T03:18:41;6.70;99.90
36752;DHT22;22718;49.494;7.036;2024-03-02T03:21:07;6.70;99.90
36752;DHT22;22718;49.494;7.036;2024-03-02T03:23:32;6.60;99.90
36752;DHT22;22718;49.494;7.036;2024-03-02T03:25:58;6.70;99.90
36752;DHT22;22718;49.494;7.036;2024-03-02T03:28:24;6.60;99.90
36752;DHT22;22718;49.494;7.036;2024-03-02T03:30:49;6.60;99.90
36752;DHT22;22718;49.494;7.036;2024-03-02T03:33:15;6.70;99.90
36752;DHT22;22718;49.494;7.036;2024-03-02T03:35:41;6.70;99.90
36752;DHT22;22718;49.494;7.036;2024-03-02T03:38:06;6.80;99.90
36752;DHT22;22718;49.494;7.036;2024-03-02T03:40:32;6.90;99.90
36752;DHT22;22718;49.494;7.036;2024-03-02T03:42:58;7.00;99.90
36752;DHT22;22718;49.494;7.036;2024-03-02T03:45:25;7.00;99.90
36752;DHT22;22718;49.494;7.036;2024-03-02T03:47:53;7.00;99.90
36752;DHT22;22718;49.494;7.036;2024-03-02T03:50:18;7.10;99.90
36752;DHT22;22718;49.494;7.036;2024-03-02T03:52:45;7.10;99.90
36752;DHT22;22718;49.494;7.036;2024-03-02T03:55:10;7.10;99.90
36752;DHT22;22718;49.494;7.036;2024-03-02T03:57:36;7.10;99.90
36752;DHT22;22718;49.494;7.036;2024-03-02T04:00:04;7.10;99.90
36752;DHT22;22718;49.494;7.036;2024-03-02T04:02:29;7.20;99.90
36752;DHT22;22718;49.494;7.036;2024-03-02T04:04:55;7.20;99.90
36752;DHT22;22718;49.494;7.036;2024-03-02T04:07:20;7.20;99.90
36752;DHT22;22718;49.494;7.036;2024-03-02T04:09:46;7.30;99.90
36752;DHT22;22718;49.494;7.036;2024-03-02T04:12:12;7.30;99.90
36752;DHT22;22718;49.494;7.036;2024-03-02T04:14:38;7.30;99.90
36752;DHT22;22718;49.494;7.036;2024-03-02T04:17:04;7.30;99.90
36752;DHT22;22718;49.494;7.036;2024-03-02T04:19:29;7.30;99.90
36752;DHT22;22718;49.494;7.036;2024-03-02T04:21:55;7.40;99.90
36752;DHT22;22718;49.494;7.036;2024-03-02T04:24:21;7.40;99.90
36752;DHT22;22718;49.494;7.036;2024-03-02T04:26:46;7.40;99.90
36752;DHT22;22718;49.494;7.036;2024-03-02T04:29:12;7.40;99.90
36752;DHT22;22718;49.494;7.036;2024-03-02T04:31:38;7.40;99.90
36752;DHT22;22718;49.494;7.036;2024-03-02T04:34:05;7.40;99.90
36752;DHT22;22718;49.494;7.036;2024-03-02T04:36:30;7.30;99.90
36752;DHT22;22718;49.494;7.036;2024-03-02T04:38:56;7.30;99.90
36752;DHT22;22718;49.494;7.036;2024-03-02T04:41:22;7.30;99.90
36752;DHT22;22718;49.494;7.036;2024-03-02T04:43:48;7.30;99.90
36752;DHT22;22718;49.494;7.036;2024-03-02T04:46:14;7.30;99.90
36752;DHT22;22718;49.494;7.036;2024-03-02T04:48:42;7.20;99.90
36752;DHT22;22718;49.494;7.036;2024-03-02T04:51:07;7.20;99.90
36752;DHT22;22718;49.494;7.036;2024-03-02T04:53:33;7.20;99.90
36752;DHT22;22718;49.494;7.036;2024-03-02T04:56:00;7.20;99.90
36752;DHT22;22718;49.494;7.036;2024-03-02T04:58:49;7.20;99.90
36752;DHT22;22718;49.494;7.036;2024-03-02T05:01:14;7.20;99.90
36752;DHT22;22718;49.494;7.036;2024-03-02T05:03:42;7.10;99.90
36752;DHT22;22718;49.494;7.036;2024-03-02T05:06:07;7.20;99.90
36752;DHT22;22718;49.494;7.036;2024-03-02T05:08:34;7.20;99.90
36752;DHT22;22718;49.494;7.036;2024-03-02T05:10:59;7.20;99.90
36752;DHT22;22718;49.494;7.036;2024-03-02T05:13:45;7.20;99.90
36752;DHT22;22718;49.494;7.036;2024-03-02T05:16:12;7.20;99.90
36752;DHT22;22718;49.494;7.036;2024-03-02T05:18:38;7.20;99.90
36752;DHT22;22718;49.494;7.036;2024-03-02T05:21:04;7.20;99.90
36752;DHT22;22718;49.494;7.036;2024-03-02T05:23:30;7.20;99.90
36752;DHT22;22718;49.494;7.036;2024-03-02T05:25:57;7.20;99.90
36752;DHT22;22718;49.494;7.036;2024-03-02T05:28:23;7.20;99.90
36752;DHT22;22718;49.494;7.036;2024-03-02T05:33:45;7.10;99.90
36752;DHT22;22718;49.494;7.036;2024-03-02T05:36:36;7.10;99.90
36752;DHT22;22718;49.494;7.036;2024-03-02T05:39:06;7.20;99.90
36752;DHT22;22718;49.494;7.036;2024-03-02T05:41:35;7.10;99.90
36752;DHT22;22718;49.494;7.036;2024-03-02T05:44:01;7.10;99.90
36752;DHT22;22718;49.494;7.036;2024-03-02T05:46:27;7.10;99.90
36752;DHT22;22718;49.494;7.036;2024-03-02T05:48:53;7.00;99.90
36752;DHT22;22718;49.494;7.036;2024-03-02T05:51:18;7.00;99.90
36752;DHT22;22718;49.494;7.036;2024-03-02T05:53:44;7.00;99.90
36752;DHT22;22718;49.494;7.036;2024-03-02T05:56:10;7.00;99.90
36752;DHT22;22718;49.494;7.036;2024-03-02T05:58:36;7.10;99.90
36752;DHT22;22718;49.494;7.036;2024-03-02T06:01:20;7.00;99.90
36752;DHT22;22718;49.494;7.036;2024-03-02T06:03:48;7.00;99.90
36752;DHT22;22718;49.494;7.036;2024-03-02T06:06:14;7.00;99.90
36752;DHT22;22718;49.494;7.036;2024-03-02T06:08:40;7.00;99.90
36752;DHT22;22718;49.494;7.036;2024-03-02T06:11:06;7.10;99.90
36752;DHT22;22718;49.494;7.036;2024-03-02T06:13:32;7.00;99.90
36752;DHT22;22718;49.494;7.036;2024-03-02T06:15:58;7.00;99.90
36752;DHT22;22718;49.494;7.036;2024-03-02T06:18:23;7.00;99.90
36752;DHT22;22718;49.494;7.036;2024-03-02T06:20:51;7.00;99.90
36752;DHT22;22718;49.494;7.036;2024-03-02T06:23:17;7.00;99.90
36752;DHT22;22718;49.494;7.036;2024-03-02T06:25:42;7.00;99.90
36752;DHT22;22718;49.494;7.036;2024-03-02T06:28:09;7.00;99.90
36752;DHT22;22718;49.494;7.036;2024-03-02T06:30:35;7.00;99.90
36752;DHT22;22718;49.494;7.036;2024-03-02T06:33:02;7.00;99.90
36752;DHT22;22718;49.494;7.036;2024-03-02T06:35:35;6.90;99.90
36752;DHT22;22718;49.494;7.036;2024-03-02T06:38:01;6.90;99.90
36752;DHT22;22718;49.494;7.036;2024-03-02T06:40:37;6.90;99.90
36752;DHT22;22718;49.494;7.036;2024-03-02T06:43:04;6.90;99.90
36752;DHT22;22718;49.494;7.036;2024-03-02T06:45:35;6.80;99.90
36752;DHT22;22718;49.494;7.036;2024-03-02T06:48:08;6.90;99.90
36752;DHT22;22718;49.494;7.036;2024-03-02T06:50:37;6.80;99.90
36752;DHT22;22718;49.494;7.036;2024-03-02T06:53:03;6.80;99.90
36752;DHT22;22718;49.494;7.036;2024-03-02T06:55:29;6.70;99.90
36752;DHT22;22718;49.494;7.036;2024-03-02T06:57:55;6.60;99.90
36752;DHT22;22718;49.494;7.036;2024-03-02T07:00:21;6.60;99.90
36752;DHT22;22718;49.494;7.036;2024-03-02T07:02:46;6.70;99.90
36752;DHT22;22718;49.494;7.036;2024-03-02T07:05:17;6.60;99.90
36752;DHT22;22718;49.494;7.036;2024-03-02T07:07:45;6.70;99.90
36752;DHT22;22718;49.494;7.036;2024-03-02T07:10:14;6.70;99.90
36752;DHT22;22718;49.494;7.036;2024-03-02T07:12:40;6.70;99.90
36752;DHT22;22718;49.494;7.036;2024-03-02T07:15:06;6.70;99.90
36752;DHT22;22718;49.494;7.036;2024-03-02T07:17:32;6.60;99.90
36752;DHT22;22718;49.494;7.036;2024-03-02T07:20:06;6.70;99.90
36752;DHT22;22718;49.494;7.036;2024-03-02T07:22:32;6.70;99.90
36752;DHT22;22718;49.494;7.036;2024-03-02T07:24:58;6.70;99.90
36752;DHT22;22718;49.494;7.036;2024-03-02T07:27:24;6.70;99.90
36752;DHT22;22718;49.494;7.036;2024-03-02T07:29:50;6.80;99.90
36752;DHT22;22718;49.494;7.036;2024-03-02T07:32:16;6.80;99.90
36752;DHT22;22718;49.494;7.036;2024-03-02T07:34:41;6.80;99.90
36752;DHT22;22718;49.494;7.036;2024-03-02T07:37:07;6.80;99.90
36752;DHT22;22718;49.494;7.036;2024-03-02T07:39:33;6.80;99.90
36752;DHT22;22718;49.494;7.036;2024-03-02T07:41:59;6.90;99.90
36752;DHT22;22718;49.494;7.036;2024-03-02T07:44:25;6.90;99.90
36752;DHT22;22718;49.494;7.036;2024-03-02T07:46:51;6.90;99.90
36752;DHT22;22718;49.494;7.036;2024-03-02T07:49:18;6.90;99.90
36752;DHT22;22718;49.494;7.036;2024-03-02T07:51:44;7.00;99.90
36752;DHT22;22718;49.494;7.036;2024-03-02T07:54:10;7.10;99.90
36752;DHT22;22718;49.494;7.036;2024-03-02T07:56:35;7.10;99.90
36752;DHT22;22718;49.494;7.036;2024-03-02T07:59:02;7.20;99.90
36752;DHT22;22718;49.494;7.036;2024-03-02T08:01:29;7.20;99.90
36752;DHT22;22718;49.494;7.036;2024-03-02T08:04:00;7.20;99.90
36752;DHT22;22718;49.494;7.036;2024-03-02T08:06:27;7.20;99.90
36752;DHT22;22718;49.494;7.036;2024-03-02T08:08:57;7.30;99.90
36752;DHT22;22718;49.494;7.036;2024-03-02T08:11:24;7.40;99.90
36752;DHT22;22718;49.494;7.036;2024-03-02T08:14:01;7.40;99.90
36752;DHT22;22718;49.494;7.036;2024-03-02T08:16:27;7.50;99.90
36752;DHT22;22718;49.494;7.036;2024-03-02T08:18:55;7.50;99.90
36752;DHT22;22718;49.494;7.036;2024-03-02T08:21:23;7.50;99.90
36752;DHT22;22718;49.494;7.036;2024-03-02T08:24:14;7.60;99.90
36752;DHT22;22718;49.494;7.036;2024-03-02T08:31:07;7.70;99.90
36752;DHT22;22718;49.494;7.036;2024-03-02T08:33:44;7.60;99.90
36752;DHT22;22718;49.494;7.036;2024-03-02T08:36:14;7.50;99.90
36752;DHT22;22718;49.494;7.036;2024-03-02T08:38:42;7.50;99.90
36752;DHT22;22718;49.494;7.036;2024-03-02T08:41:09;7.40;99.90
36752;DHT22;22718;49.494;7.036;2024-03-02T08:43:35;7.40;99.90
36752;DHT22;22718;49.494;7.036;2024-03-02T08:46:01;7.40;99.90
36752;DHT22;22718;49.494;7.036;2024-03-02T08:48:27;7.50;99.90
36752;DHT22;22718;49.494;7.036;2024-03-02T08:50:58;7.50;99.90
36752;DHT22;22718;49.494;7.036;2024-03-02T08:53:24;7.60;99.90
36752;DHT22;22718;49.494;7.036;2024-03-02T08:55:50;7.70;99.90
36752;DHT22;22718;49.494;7.036;2024-03-02T08:58:15;7.80;99.90
36752;DHT22;22718;49.494;7.036;2024-03-02T09:00:42;7.90;99.90
36752;DHT22;22718;49.494;7.036;2024-03-02T09:03:10;8.00;99.90
36752;DHT22;22718;49.494;7.036;2024-03-02T09:05:36;8.00;99.90
36752;DHT22;22718;49.494;7.036;2024-03-02T09:08:03;8.00;99.90
36752;DHT22;22718;49.494;7.036;2024-03-02T09:10:32;8.00;99.90
36752;DHT22;22718;49.494;7.036;2024-03-02T09:13:04;8.00;99.90
36752;DHT22;22718;49.494;7.036;2024-03-02T09:15:32;8.00;99.90
36752;DHT22;22718;49.494;7.036;2024-03-02T09:17:57;8.10;99.90
36752;DHT22;22718;49.494;7.036;2024-03-02T09:20:23;8.10;99.90
36752;DHT22;22718;49.494;7.036;2024-03-02T09:22:50;8.20;99.90
36752;DHT22;22718;49.494;7.036;2024-03-02T09:25:17;8.20;99.90
36752;DHT22;22718;49.494;7.036;2024-03-02T09:27:42;8.40;99.90
36752;DHT22;22718;49.494;7.036;2024-03-02T09:30:09;8.60;99.90
36752;DHT22;22718;49.494;7.036;2024-03-02T09:32:37;8.70;99.90
36752;DHT22;22718;49.494;7.036;2024-03-02T09:35:24;8.80;99.90
36752;DHT22;22718;49.494;7.036;2024-03-02T09:37:50;9.00;99.90
36752;DHT22;22718;49.494;7.036;2024-03-02T09:40:15;9.20;99.90
36752;DHT22;22718;49.494;7.036;2024-03-02T09:42:42;9.50;99.90
36752;DHT22;22718;49.494;7.036;2024-03-02T09:45:09;9.70;99.90
36752;DHT22;22718;49.494;7.036;2024-03-02T09:47:35;9.80;99.90
36752;DHT22;22718;49.494;7.036;2024-03-02T09:50:01;9.90;99.90
36752;DHT22;22718;49.494;7.036;2024-03-02T09:52:26;10.10;99.90
36752;DHT22;22718;49.494;7.036;2024-03-02T09:55:09;10.30;99.90
36752;DHT22;22718;49.494;7.036;2024-03-02T09:57:39;10.40;99.90
36752;DHT22;22718;49.494;7.036;2024-03-02T10:00:08;10.60;99.90
36752;DHT22;22718;49.494;7.036;2024-03-02T10:02:43;10.70;99.90
36752;DHT22;22718;49.494;7.036;2024-03-02T10:05:10;10.80;99.90
36752;DHT22;22718;49.494;7.036;2024-03-02T10:07:40;10.80;99.90
36752;DHT22;22718;49.494;7.036;2024-03-02T10:10:15;10.90;99.90
36752;DHT22;22718;49.494;7.036;2024-03-02T10:12:42;10.90;99.90
36752;DHT22;22718;49.494;7.036;2024-03-02T10:15:08;11.00;99.90
36752;DHT22;22718;49.494;7.036;2024-03-02T10:17:35;11.00;99.90
36752;DHT22;22718;49.494;7.036;2024-03-02T10:23:22;11.00;99.90
36752;DHT22;22718;49.494;7.036;2024-03-02T10:25:47;11.10;99.90
36752;DHT22;22718;49.494;7.036;2024-03-02T10:28:13;11.20;99.90
36752;DHT22;22718;49.494;7.036;2024-03-02T10:30:40;11.50;99.90
36752;DHT22;22718;49.494;7.036;2024-03-02T10:33:06;11.70;99.90
36752;DHT22;22718;49.494;7.036;2024-03-02T10:35:32;12.00;99.90
36752;DHT22;22718;49.494;7.036;2024-03-02T10:38:04;12.20;99.90
36752;DHT22;22718;49.494;7.036;2024-03-02T10:40:30;12.40;99.90
36752;DHT22;22718;49.494;7.036;2024-03-02T10:42:56;12.50;99.90
36752;DHT22;22718;49.494;7.036;2024-03-02T10:45:23;12.60;99.90
36752;DHT22;22718;49.494;7.036;2024-03-02T10:47:51;12.60;99.90
36752;DHT22;22718;49.494;7.036;2024-03-02T10:50:17;12.80;99.90
36752;DHT22;22718;49.494;7.036;2024-03-02T10:52:43;13.00;99.90
36752;DHT22;22718;49.494;7.036;2024-03-02T10:55:11;13.10;99.90
36752;DHT22;22718;49.494;7.036;2024-03-02T10:57:45;13.10;99.90
36752;DHT22;22718;49.494;7.036;2024-03-02T11:00:16;13.20;99.90
36752;DHT22;22718;49.494;7.036;2024-03-02T11:02:50;13.30;99.90
36752;DHT22;22718;49.494;7.036;2024-03-02T11:05:24;13.50;99.90
36752;DHT22;22718;49.494;7.036;2024-03-02T11:07:57;13.30;99.90
36752;DHT22;22718;49.494;7.036;2024-03-02T11:10:27;13.30;99.90
36752;DHT22;22718;49.494;7.036;2024-03-02T11:12:59;13.30;99.90
36752;DHT22;22718;49.494;7.036;2024-03-02T11:15:27;13.40;99.90
36752;DHT22;22718;49.494;7.036;2024-03-02T11:17:54;13.60;99.90
36752;DHT22;22718;49.494;7.036;2024-03-02T11:20:20;13.70;99.90
36752;DHT22;22718;49.494;7.036;2024-03-02T11:22:50;13.80;99.90
36752;DHT22;22718;49.494;7.036;2024-03-02T11:25:31;13.90;99.90
36752;DHT22;22718;49.494;7.036;2024-03-02T11:28:01;13.90;99.90
36752;DHT22;22718;49.494;7.036;2024-03-02T11:33:07;13.90;99.90
36752;DHT22;22718;49.494;7.036;2024-03-02T11:35:33;13.90;99.90
36752;DHT22;22718;49.494;7.036;2024-03-02T11:38:04;13.90;99.90
36752;DHT22;22718;49.494;7.036;2024-03-02T11:40:30;14.10;99.90
36752;DHT22;22718;49.494;7.036;2024-03-02T11:42:56;14.10;99.90
36752;DHT22;22718;49.494;7.036;2024-03-02T11:45:30;14.20;99.90
36752;DHT22;22718;49.494;7.036;2024-03-02T11:51:01;14.20;99.90
36752;DHT22;22718;49.494;7.036;2024-03-02T11:53:38;14.20;99.90
36752;DHT22;22718;49.494;7.036;2024-03-02T11:56:27;14.20;99.90
36752;DHT22;22718;49.494;7.036;2024-03-02T11:59:05;14.10;99.90
36752;DHT22;22718;49.494;7.036;2024-03-02T12:01:49;13.90;99.90
36752;DHT22;22718;49.494;7.036;2024-03-02T12:04:18;13.80;99.90
36752;DHT22;22718;49.494;7.036;2024-03-02T12:06:44;13.80;99.90
36752;DHT22;22718;49.494;7.036;2024-03-02T12:09:13;13.90;99.90
36752;DHT22;22718;49.494;7.036;2024-03-02T12:11:40;14.00;99.90
36752;DHT22;22718;49.494;7.036;2024-03-02T12:14:12;14.10;99.90
36752;DHT22;22718;49.494;7.036;2024-03-02T12:16:38;14.20;99.90
36752;DHT22;22718;49.494;7.036;2024-03-02T12:19:05;14.30;99.90
36752;DHT22;22718;49.494;7.036;2024-03-02T12:21:31;14.20;99.90
36752;DHT22;22718;49.494;7.036;2024-03-02T12:24:01;14.00;99.90
36752;DHT22;22718;49.494;7.036;2024-03-02T12:26:27;14.00;99.90
36752;DHT22;22718;49.494;7.036;2024-03-02T12:28:57;14.00;99.90
36752;DHT22;22718;49.494;7.036;2024-03-02T12:31:23;14.10;99.90
36752;DHT22;22718;49.494;7.036;2024-03-02T12:33:50;14.00;99.90
36752;DHT22;22718;49.494;7.036;2024-03-02T12:36:16;13.90;99.90
36752;DHT22;22718;49.494;7.036;2024-03-02T12:38:45;13.80;99.90
36752;DHT22;22718;49.494;7.036;2024-03-02T12:41:17;13.70;99.90
36752;DHT22;22718;49.494;7.036;2024-03-02T12:43:43;13.60;99.90
36752;DHT22;22718;49.494;7.036;2024-03-02T12:46:08;13.60;99.90
36752;DHT22;22718;49.494;7.036;2024-03-02T12:48:40;13.60;99.90
36752;DHT22;22718;49.494;7.036;2024-03-02T12:51:16;13.50;99.90
36752;DHT22;22718;49.494;7.036;2024-03-02T12:53:42;13.40;99.90
36752;DHT22;22718;49.494;7.036;2024-03-02T12:56:09;13.20;99.90
36752;DHT22;22718;49.494;7.036;2024-03-02T12:58:41;13.00;99.90
36752;DHT22;22718;49.494;7.036;2024-03-02T13:01:08;13.00;99.90
36752;DHT22;22718;49.494;7.036;2024-03-02T13:03:40;12.90;99.90
36752;DHT22;22718;49.494;7.036;2024-03-02T13:06:12;12.90;99.90
36752;DHT22;22718;49.494;7.036;2024-03-02T13:08:39;12.80;99.90
36752;DHT22;22718;49.494;7.036;2024-03-02T13:11:04;12.70;99.90
36752;DHT22;22718;49.494;7.036;2024-03-02T13:13:32;12.70;99.90
36752;DHT22;22718;49.494;7.036;2024-03-02T13:16:00;12.60;99.90
36752;DHT22;22718;49.494;7.036;2024-03-02T13:18:28;12.50;99.90
36752;DHT22;22718;49.494;7.036;2024-03-02T13:20:54;12.30;99.90
36752;DHT22;22718;49.494;7.036;2024-03-02T13:23:21;12.30;99.90
36752;DHT22;22718;49.494;7.036;2024-03-02T13:25:47;12.20;99.90
36752;DHT22;22718;49.494;7.036;2024-03-02T13:28:13;12.20;99.90
36752;DHT22;22718;49.494;7.036;2024-03-02T13:30:38;12.10;99.90
36752;DHT22;22718;49.494;7.036;2024-03-02T13:33:04;12.10;99.90
36752;DHT22;22718;49.494;7.036;2024-03-02T13:35:30;12.00;99.90
36752;DHT22;22718;49.494;7.036;2024-03-02T13:37:56;12.00;99.90
36752;DHT22;22718;49.494;7.036;2024-03-02T13:40:21;11.90;99.90
36752;DHT22;22718;49.494;7.036;2024-03-02T13:42:49;11.90;99.90
36752;DHT22;22718;49.494;7.036;2024-03-02T13:45:16;11.90;99.90
36752;DHT22;22718;49.494;7.036;2024-03-02T13:47:43;11.90;99.90
36752;DHT22;22718;49.494;7.036;2024-03-02T13:50:09;12.00;99.90
36752;DHT22;22718;49.494;7.036;2024-03-02T13:52:35;12.10;99.90
36752;DHT22;22718;49.494;7.036;2024-03-02T13:55:00;12.10;99.90
36752;DHT22;22718;49.494;7.036;2024-03-02T13:57:26;12.10;99.90
36752;DHT22;22718;49.494;7.036;2024-03-02T13:59:51;12.10;99.90
36752;DHT22;22718;49.494;7.036;2024-03-02T14:02:18;12.00;99.90
36752;DHT22;22718;49.494;7.036;2024-03-02T14:04:44;12.00;99.90
36752;DHT22;22718;49.494;7.036;2024-03-02T14:07:10;11.90;99.90
36752;DHT22;22718;49.494;7.036;2024-03-02T14:09:38;12.00;99.90
36752;DHT22;22718;49.494;7.036;2024-03-02T14:12:05;12.00;99.90
36752;DHT22;22718;49.494;7.036;2024-03-02T14:14:31;12.00;99.90
36752;DHT22;22718;49.494;7.036;2024-03-02T14:16:57;12.00;99.90
36752;DHT22;22718;49.494;7.036;2024-03-02T14:19:26;12.00;99.90
36752;DHT22;22718;49.494;7.036;2024-03-02T14:21:51;12.00;99.90
36752;DHT22;22718;49.494;7.036;2024-03-02T14:24:17;12.00;99.90
36752;DHT22;22718;49.494;7.036;2024-03-02T14:26:43;12.00;99.90
36752;DHT22;22718;49.494;7.036;2024-03-02T14:29:08;12.00;99.90
36752;DHT22;22718;49.494;7.036;2024-03-02T14:31:34;12.00;99.90
36752;DHT22;22718;49.494;7.036;2024-03-02T14:34:00;12.10;99.90
36752;DHT22;22718;49.494;7.036;2024-03-02T14:36:26;12.10;99.90
36752;DHT22;22718;49.494;7.036;2024-03-02T14:38:55;12.20;99.90
36752;DHT22;22718;49.494;7.036;2024-03-02T14:41:21;12.40;99.90
36752;DHT22;22718;49.494;7.036;2024-03-02T14:43:47;12.60;99.90
36752;DHT22;22718;49.494;7.036;2024-03-02T14:46:12;12.80;99.90
36752;DHT22;22718;49.494;7.036;2024-03-02T14:48:38;12.90;99.90
36752;DHT22;22718;49.494;7.036;2024-03-02T14:51:04;13.00;99.90
36752;DHT22;22718;49.494;7.036;2024-03-02T14:53:30;12.90;99.90
36752;DHT22;22718;49.494;7.036;2024-03-02T14:55:55;12.90;99.90
36752;DHT22;22718;49.494;7.036;2024-03-02T14:58:21;12.80;99.90
36752;DHT22;22718;49.494;7.036;2024-03-02T15:00:47;12.90;99.90
36752;DHT22;22718;49.494;7.036;2024-03-02T15:03:13;12.90;99.90
36752;DHT22;22718;49.494;7.036;2024-03-02T15:05:39;12.90;99.90
36752;DHT22;22718;49.494;7.036;2024-03-02T15:08:05;12.90;99.90
36752;DHT22;22718;49.494;7.036;2024-03-02T15:10:32;12.90;99.90
36752;DHT22;22718;49.494;7.036;2024-03-02T15:12:58;12.90;99.90
36752;DHT22;22718;49.494;7.036;2024-03-02T15:15:24;12.70;99.90
36752;DHT22;22718;49.494;7.036;2024-03-02T15:17:49;12.60;99.90
36752;DHT22;22718;49.494;7.036;2024-03-02T15:20:16;12.50;99.90
36752;DHT22;22718;49.494;7.036;2024-03-02T15:22:41;12.40;99.90
36752;DHT22;22718;49.494;7.036;2024-03-02T15:25:07;12.40;99.90
36752;DHT22;22718;49.494;7.036;2024-03-02T15:27:33;12.50;99.90
36752;DHT22;22718;49.494;7.036;2024-03-02T15:29:59;12.60;99.90
36752;DHT22;22718;49.494;7.036;2024-03-02T15:32:24;12.70;99.90
36752;DHT22;22718;49.494;7.036;2024-03-02T15:34:55;12.80;99.90
36752;DHT22;22718;49.494;7.036;2024-03-02T15:37:21;12.80;99.90
36752;DHT22;22718;49.494;7.036;2024-03-02T15:39:46;12.90;99.90
36752;DHT22;22718;49.494;7.036;2024-03-02T15:42:12;12.80;99.90
36752;DHT22;22718;49.494;7.036;2024-03-02T15:44:38;12.80;99.90
36752;DHT22;22718;49.494;7.036;2024-03-02T15:47:04;12.70;99.90
36752;DHT22;22718;49.494;7.036;2024-03-02T15:49:34;12.70;99.90
36752;DHT22;22718;49.494;7.036;2024-03-02T15:51:59;12.70;99.90
36752;DHT22;22718;49.494;7.036;2024-03-02T16:53:59;11.60;99.90
36752;DHT22;22718;49.494;7.036;2024-03-02T16:56:26;11.50;99.90
36752;DHT22;22718;49.494;7.036;2024-03-02T16:58:51;11.50;99.90
36752;DHT22;22718;49.494;7.036;2024-03-02T17:01:20;11.40;99.90
36752;DHT22;22718;49.494;7.036;2024-03-02T17:03:46;11.40;99.90
36752;DHT22;22718;49.494;7.036;2024-03-02T17:06:15;11.40;99.90
36752;DHT22;22718;49.494;7.036;2024-03-02T19:47:25;9.40;99.90
36752;DHT22;22718;49.494;7.036;2024-03-02T19:50:06;9.40;99.90
36752;DHT22;22718;49.494;7.036;2024-03-02T19:52:33;9.40;99.90
36752;DHT22;22718;49.494;7.036;2024-03-02T19:55:12;9.50;99.90
36752;DHT22;22718;49.494;7.036;2024-03-02T19:57:41;9.50;99.90
36752;DHT22;22718;49.494;7.036;2024-03-02T20:00:14;9.60;99.90
36752;DHT22;22718;49.494;7.036;2024-03-02T20:02:47;9.60;99.90
36752;DHT22;22718;49.494;7.036;2024-03-02T20:05:15;9.70;99.90
36752;DHT22;22718;49.494;7.036;2024-03-02T20:07:41;9.70;99.90
36752;DHT22;22718;49.494;7.036;2024-03-02T20:20:31;9.80;99.90
36752;DHT22;22718;49.494;7.036;2024-03-02T20:23:16;9.80;99.90
36752;DHT22;22718;49.494;7.036;2024-03-02T20:26:11;9.80;99.90
36752;DHT22;22718;49.494;7.036;2024-03-02T20:28:37;9.80;99.90
36752;DHT22;22718;49.494;7.036;2024-03-02T20:31:25;9.80;99.90
36752;DHT22;22718;49.494;7.036;2024-03-02T21:17:55;9.80;99.90
36752;DHT22;22718;49.494;7.036;2024-03-02T21:20:20;9.70;99.90